sensor_id;sensor_type;location;lat;lon;timestamp;pressure;altitude;pressure_sealevel;temperature;humidity
39555;BME280;25231;48.746;9.234;2023-03-01T00:01:54;97406.78;;;-1.18;91.73
39555;BME280;25231;48.746;9.234;2023-03-01T00:04:19;97409.09;;;-1.24;92.71
39555;BME280;25231;48.746;9.234;2023-03-01T00:06:45;97406.63;;;-1.16;92.22
39555;BME280;25231;48.746;9.234;2023-03-01T00:09:14;97414.22;;;-1.15;91.75
39555;BME280;25231;48.746;9.234;2023-03-01T00:11:40;97405.56;;;-1.23;92.20
39555;BME280;25231;48.746;9.234;2023-03-01T00:14:05;97406.09;;;-1.20;92.69
39555;BME280;25231;48.746;9.234;2023-03-01T00:16:42;97413.03;;;-1.40;93.33
39555;BME280;25231;48.746;9.234;2023-03-01T00:19:11;97405.41;;;-1.22;92.96
39555;BME280;25231;48.746;9.234;2023-03-01T00:21:36;97408.16;;;-1.23;93.11
39555;BME280;25231;48.746;9.234;2023-03-01T00:24:02;97410.97;;;-1.27;93.03
39555;BME280;25231;48.746;9.234;2023-03-01T00:26:28;97416.38;;;-1.20;93.04
39555;BME280;25231;48.746;9.234;2023-03-01T00:28:54;97406.38;;;-1.23;93.19
39555;BME280;25231;48.746;9.234;2023-03-01T00:31:24;97417.88;;;-1.27;93.65
39555;BME280;25231;48.746;9.234;2023-03-01T00:33:54;97408.28;;;-1.25;93.41
39555;BME280;25231;48.746;9.234;2023-03-01T00:36:25;97414.50;;;-1.37;94.44
39555;BME280;25231;48.746;9.234;2023-03-01T00:38:51;97413.69;;;-1.38;94.72
39555;BME280;25231;48.746;9.234;2023-03-01T00:41:17;97407.88;;;-1.30;94.42
39555;BME280;25231;48.746;9.234;2023-03-01T00:43:44;97397.59;;;-1.30;94.32
39555;BME280;25231;48.746;9.234;2023-03-01T00:46:15;97399.78;;;-1.35;94.56
39555;BME280;25231;48.746;9.234;2023-03-01T00:48:41;97405.59;;;-1.43;94.29
39555;BME280;25231;48.746;9.234;2023-03-01T00:51:08;97402.09;;;-1.51;95.41
39555;BME280;25231;48.746;9.234;2023-03-01T00:53:35;97407.06;;;-1.50;95.22
39555;BME280;25231;48.746;9.234;2023-03-01T00:56:00;97402.75;;;-1.49;94.72
39555;BME280;25231;48.746;9.234;2023-03-01T00:58:26;97397.88;;;-1.52;95.13
39555;BME280;25231;48.746;9.234;2023-03-01T01:00:51;97399.34;;;-1.50;95.46
39555;BME280;25231;48.746;9.234;2023-03-01T01:03:18;97396.25;;;-1.53;95.89
39555;BME280;25231;48.746;9.234;2023-03-01T01:05:43;97400.59;;;-1.63;96.42
39555;BME280;25231;48.746;9.234;2023-03-01T01:08:08;97399.66;;;-1.62;95.99
39555;BME280;25231;48.746;9.234;2023-03-01T01:10:34;97391.66;;;-1.59;96.11
39555;BME280;25231;48.746;9.234;2023-03-01T01:12:59;97387.47;;;-1.60;96.18
39555;BME280;25231;48.746;9.234;2023-03-01T01:15:25;97393.69;;;-1.73;97.06
39555;BME280;25231;48.746;9.234;2023-03-01T01:17:50;97395.31;;;-1.72;96.77
39555;BME280;25231;48.746;9.234;2023-03-01T01:20:17;97391.38;;;-1.76;97.40
39555;BME280;25231;48.746;9.234;2023-03-01T01:22:43;97390.69;;;-1.78;97.73
39555;BME280;25231;48.746;9.234;2023-03-01T01:25:09;97390.59;;;-1.86;98.47
39555;BME280;25231;48.746;9.234;2023-03-01T01:27:34;97391.94;;;-2.01;99.91
39555;BME280;25231;48.746;9.234;2023-03-01T01:30:00;97379.09;;;-1.91;99.31
39555;BME280;25231;48.746;9.234;2023-03-01T01:32:25;97373.94;;;-1.91;99.01
39555;BME280;25231;48.746;9.234;2023-03-01T01:34:51;97372.31;;;-1.92;99.14
39555;BME280;25231;48.746;9.234;2023-03-01T01:37:16;97374.75;;;-1.91;99.32
39555;BME280;25231;48.746;9.234;2023-03-01T01:39:41;97367.19;;;-1.92;99.57
39555;BME280;25231;48.746;9.234;2023-03-01T01:42:14;97372.59;;;-1.86;99.36
39555;BME280;25231;48.746;9.234;2023-03-01T01:44:40;97370.44;;;-1.81;98.57
39555;BME280;25231;48.746;9.234;2023-03-01T01:47:10;97368.56;;;-1.79;98.50
39555;BME280;25231;48.746;9.234;2023-03-01T01:49:56;97366.63;;;-1.67;98.33
39555;BME280;25231;48.746;9.234;2023-03-01T01:52:23;97364.06;;;-1.67;98.46
39555;BME280;25231;48.746;9.234;2023-03-01T01:55:11;97357.72;;;-1.53;97.90
39555;BME280;25231;48.746;9.234;2023-03-01T01:57:44;97357.28;;;-1.49;97.42
39555;BME280;25231;48.746;9.234;2023-03-01T02:00:14;97362.97;;;-1.55;96.64
39555;BME280;25231;48.746;9.234;2023-03-01T02:02:40;97363.41;;;-1.59;97.26
39555;BME280;25231;48.746;9.234;2023-03-01T02:05:17;97353.78;;;-1.48;96.69
39555;BME280;25231;48.746;9.234;2023-03-01T02:07:46;97357.94;;;-1.37;96.87
39555;BME280;25231;48.746;9.234;2023-03-01T02:10:13;97351.75;;;-1.35;96.19
39555;BME280;25231;48.746;9.234;2023-03-01T02:12:39;97343.06;;;-1.34;96.07
39555;BME280;25231;48.746;9.234;2023-03-01T02:15:05;97339.13;;;-1.28;95.96
39555;BME280;25231;48.746;9.234;2023-03-01T02:17:30;97331.81;;;-1.33;96.00
39555;BME280;25231;48.746;9.234;2023-03-01T02:20:35;97334.41;;;-1.23;95.66
39555;BME280;25231;48.746;9.234;2023-03-01T02:23:04;97326.09;;;-1.17;94.75
39555;BME280;25231;48.746;9.234;2023-03-01T02:30:41;97323.81;;;-1.20;94.51
39555;BME280;25231;48.746;9.234;2023-03-01T02:33:27;97321.53;;;-1.23;94.88
39555;BME280;25231;48.746;9.234;2023-03-01T02:35:54;97321.94;;;-1.18;95.78
39555;BME280;25231;48.746;9.234;2023-03-01T02:38:20;97306.91;;;-1.22;95.30
39555;BME280;25231;48.746;9.234;2023-03-01T02:40:46;97297.84;;;-1.27;95.31
39555;BME280;25231;48.746;9.234;2023-03-01T02:43:16;97304.75;;;-1.27;95.96
39555;BME280;25231;48.746;9.234;2023-03-01T02:45:52;97294.19;;;-1.24;95.12
39555;BME280;25231;48.746;9.234;2023-03-01T02:48:19;97301.50;;;-1.19;95.91
39555;BME280;25231;48.746;9.234;2023-03-01T02:50:49;97305.94;;;-1.12;94.99
39555;BME280;25231;48.746;9.234;2023-03-01T02:53:29;97299.44;;;-1.16;95.04
39555;BME280;25231;48.746;9.234;2023-03-01T02:55:57;97294.72;;;-1.20;95.25
39555;BME280;25231;48.746;9.234;2023-03-01T02:58:24;97291.72;;;-1.16;95.17
39555;BME280;25231;48.746;9.234;2023-03-01T03:00:50;97292.16;;;-1.20;95.13
39555;BME280;25231;48.746;9.234;2023-03-01T03:03:18;97285.25;;;-1.20;95.21
39555;BME280;25231;48.746;9.234;2023-03-01T03:05:44;97290.91;;;-1.16;95.09
39555;BME280;25231;48.746;9.234;2023-03-01T03:08:10;97287.50;;;-1.07;94.92
39555;BME280;25231;48.746;9.234;2023-03-01T03:10:38;97282.50;;;-1.09;94.95
39555;BME280;25231;48.746;9.234;2023-03-01T03:13:11;97277.34;;;-1.09;95.08
39555;BME280;25231;48.746;9.234;2023-03-01T03:15:36;97273.44;;;-1.13;94.07
39555;BME280;25231;48.746;9.234;2023-03-01T03:18:06;97277.88;;;-1.05;94.70
39555;BME280;25231;48.746;9.234;2023-03-01T03:20:32;97278.13;;;-0.99;93.83
39555;BME280;25231;48.746;9.234;2023-03-01T03:22:58;97278.84;;;-1.06;93.95
39555;BME280;25231;48.746;9.234;2023-03-01T03:25:25;97267.66;;;-1.24;95.60
39555;BME280;25231;48.746;9.234;2023-03-01T03:27:51;97273.28;;;-1.11;95.03
39555;BME280;25231;48.746;9.234;2023-03-01T03:30:23;97271.16;;;-1.16;96.02
39555;BME280;25231;48.746;9.234;2023-03-01T03:32:49;97267.75;;;-1.07;94.99
39555;BME280;25231;48.746;9.234;2023-03-01T03:35:23;97270.84;;;-1.03;94.80
39555;BME280;25231;48.746;9.234;2023-03-01T03:37:50;97278.13;;;-0.99;94.85
39555;BME280;25231;48.746;9.234;2023-03-01T03:40:38;97275.84;;;-1.02;94.53
39555;BME280;25231;48.746;9.234;2023-03-01T03:43:16;97278.69;;;-1.05;94.73
39555;BME280;25231;48.746;9.234;2023-03-01T03:45:44;97275.59;;;-1.08;95.03
39555;BME280;25231;48.746;9.234;2023-03-01T03:48:09;97271.78;;;-1.04;95.48
39555;BME280;25231;48.746;9.234;2023-03-01T03:50:36;97266.69;;;-1.14;95.30
39555;BME280;25231;48.746;9.234;2023-03-01T03:53:04;97270.88;;;-1.13;96.13
39555;BME280;25231;48.746;9.234;2023-03-01T03:55:29;97268.13;;;-1.02;95.48
39555;BME280;25231;48.746;9.234;2023-03-01T03:57:57;97264.56;;;-0.91;95.18
39555;BME280;25231;48.746;9.234;2023-03-01T04:00:23;97267.13;;;-0.91;94.93
39555;BME280;25231;48.746;9.234;2023-03-01T04:02:49;97257.47;;;-0.89;94.79
39555;BME280;25231;48.746;9.234;2023-03-01T04:05:17;97254.19;;;-0.81;94.13
39555;BME280;25231;48.746;9.234;2023-03-01T04:07:43;97246.91;;;-0.86;94.45
39555;BME280;25231;48.746;9.234;2023-03-01T04:10:15;97254.16;;;-0.99;94.78
39555;BME280;25231;48.746;9.234;2023-03-01T04:12:41;97251.56;;;-0.99;95.43
39555;BME280;25231;48.746;9.234;2023-03-01T04:15:09;97250.50;;;-0.97;95.02
39555;BME280;25231;48.746;9.234;2023-03-01T04:17:46;97240.25;;;-1.06;95.07
39555;BME280;25231;48.746;9.234;2023-03-01T04:20:20;97238.66;;;-1.17;95.87
39555;BME280;25231;48.746;9.234;2023-03-01T04:22:52;97246.91;;;-1.13;96.30
39555;BME280;25231;48.746;9.234;2023-03-01T04:25:18;97236.78;;;-1.15;96.15
39555;BME280;25231;48.746;9.234;2023-03-01T04:27:43;97231.69;;;-1.24;97.13
39555;BME280;25231;48.746;9.234;2023-03-01T04:30:09;97241.66;;;-1.12;96.44
39555;BME280;25231;48.746;9.234;2023-03-01T04:32:34;97238.00;;;-1.19;96.76
39555;BME280;25231;48.746;9.234;2023-03-01T04:35:00;97236.00;;;-1.25;96.95
39555;BME280;25231;48.746;9.234;2023-03-01T04:37:26;97240.97;;;-1.14;96.78
39555;BME280;25231;48.746;9.234;2023-03-01T04:39:52;97237.69;;;-1.06;97.32
39555;BME280;25231;48.746;9.234;2023-03-01T04:42:18;97241.22;;;-1.07;96.70
39555;BME280;25231;48.746;9.234;2023-03-01T04:44:44;97225.03;;;-1.00;95.94
39555;BME280;25231;48.746;9.234;2023-03-01T04:47:10;97242.41;;;-1.02;95.97
39555;BME280;25231;48.746;9.234;2023-03-01T04:49:35;97238.28;;;-0.95;95.25
39555;BME280;25231;48.746;9.234;2023-03-01T04:52:01;97236.44;;;-1.02;95.52
39555;BME280;25231;48.746;9.234;2023-03-01T04:54:33;97242.41;;;-1.02;96.33
39555;BME280;25231;48.746;9.234;2023-03-01T04:57:00;97231.31;;;-1.02;95.91
39555;BME280;25231;48.746;9.234;2023-03-01T04:59:25;97236.59;;;-1.04;96.28
39555;BME280;25231;48.746;9.234;2023-03-01T05:01:52;97242.16;;;-1.08;97.06
39555;BME280;25231;48.746;9.234;2023-03-01T05:04:20;97236.91;;;-1.16;97.14
39555;BME280;25231;48.746;9.234;2023-03-01T05:06:46;97237.19;;;-1.19;97.69
39555;BME280;25231;48.746;9.234;2023-03-01T05:09:11;97241.91;;;-1.15;97.36
39555;BME280;25231;48.746;9.234;2023-03-01T05:11:37;97241.41;;;-1.18;97.64
39555;BME280;25231;48.746;9.234;2023-03-01T05:14:04;97229.16;;;-1.07;97.19
39555;BME280;25231;48.746;9.234;2023-03-01T05:16:29;97231.19;;;-1.10;97.63
39555;BME280;25231;48.746;9.234;2023-03-01T05:18:55;97230.50;;;-1.03;97.00
39555;BME280;25231;48.746;9.234;2023-03-01T05:21:22;97239.47;;;-1.16;97.82
39555;BME280;25231;48.746;9.234;2023-03-01T05:23:47;97225.97;;;-1.18;98.03
39555;BME280;25231;48.746;9.234;2023-03-01T05:26:13;97231.13;;;-1.18;98.51
39555;BME280;25231;48.746;9.234;2023-03-01T05:28:39;97234.72;;;-1.11;98.04
39555;BME280;25231;48.746;9.234;2023-03-01T05:31:05;97231.16;;;-1.01;97.09
39555;BME280;25231;48.746;9.234;2023-03-01T05:33:35;97243.09;;;-1.09;97.78
39555;BME280;25231;48.746;9.234;2023-03-01T05:36:01;97229.97;;;-1.06;97.52
39555;BME280;25231;48.746;9.234;2023-03-01T05:38:26;97236.72;;;-1.05;97.22
39555;BME280;25231;48.746;9.234;2023-03-01T05:40:51;97235.06;;;-0.97;97.31
39555;BME280;25231;48.746;9.234;2023-03-01T05:43:17;97237.91;;;-1.00;96.69
39555;BME280;25231;48.746;9.234;2023-03-01T05:45:43;97236.63;;;-0.86;96.24
39555;BME280;25231;48.746;9.234;2023-03-01T05:48:09;97243.34;;;-1.03;96.56
39555;BME280;25231;48.746;9.234;2023-03-01T05:50:37;97231.09;;;-0.91;96.94
39555;BME280;25231;48.746;9.234;2023-03-01T05:53:10;97228.97;;;-0.96;97.37
39555;BME280;25231;48.746;9.234;2023-03-01T05:55:37;97227.28;;;-0.87;96.39
39555;BME280;25231;48.746;9.234;2023-03-01T05:58:07;97224.66;;;-0.77;96.29
39555;BME280;25231;48.746;9.234;2023-03-01T06:00:33;97235.25;;;-0.80;95.55
39555;BME280;25231;48.746;9.234;2023-03-01T06:03:01;97222.47;;;-1.00;97.20
39555;BME280;25231;48.746;9.234;2023-03-01T06:05:27;97222.72;;;-0.93;97.16
39555;BME280;25231;48.746;9.234;2023-03-01T06:07:53;97221.00;;;-1.02;98.12
39555;BME280;25231;48.746;9.234;2023-03-01T06:10:20;97213.16;;;-1.01;98.34
39555;BME280;25231;48.746;9.234;2023-03-01T06:12:46;97212.66;;;-0.87;97.18
39555;BME280;25231;48.746;9.234;2023-03-01T06:15:13;97207.94;;;-0.91;97.12
39555;BME280;25231;48.746;9.234;2023-03-01T06:17:41;97208.47;;;-0.88;97.21
39555;BME280;25231;48.746;9.234;2023-03-01T06:20:18;97219.13;;;-0.82;97.04
39555;BME280;25231;48.746;9.234;2023-03-01T06:22:44;97227.38;;;-0.79;96.85
39555;BME280;25231;48.746;9.234;2023-03-01T06:25:11;97218.53;;;-0.76;96.89
39555;BME280;25231;48.746;9.234;2023-03-01T06:27:38;97209.66;;;-0.64;95.91
39555;BME280;25231;48.746;9.234;2023-03-01T06:30:03;97212.59;;;-0.77;96.30
39555;BME280;25231;48.746;9.234;2023-03-01T06:32:29;97217.00;;;-0.87;96.50
39555;BME280;25231;48.746;9.234;2023-03-01T06:34:55;97211.91;;;-0.97;97.56
39555;BME280;25231;48.746;9.234;2023-03-01T06:37:20;97215.16;;;-0.77;97.40
39555;BME280;25231;48.746;9.234;2023-03-01T06:39:46;97217.50;;;-1.01;97.65
39555;BME280;25231;48.746;9.234;2023-03-01T06:42:11;97220.19;;;-1.03;98.42
39555;BME280;25231;48.746;9.234;2023-03-01T06:44:37;97223.66;;;-0.94;98.84
39555;BME280;25231;48.746;9.234;2023-03-01T06:47:03;97223.28;;;-0.99;98.81
39555;BME280;25231;48.746;9.234;2023-03-01T06:49:28;97225.22;;;-1.01;99.10
39555;BME280;25231;48.746;9.234;2023-03-01T06:51:55;97222.84;;;-0.95;98.57
39555;BME280;25231;48.746;9.234;2023-03-01T06:54:20;97227.47;;;-0.98;98.59
39555;BME280;25231;48.746;9.234;2023-03-01T06:56:48;97223.16;;;-0.98;98.53
39555;BME280;25231;48.746;9.234;2023-03-01T06:59:13;97220.25;;;-0.85;98.49
39555;BME280;25231;48.746;9.234;2023-03-01T07:01:39;97222.28;;;-0.89;98.02
39555;BME280;25231;48.746;9.234;2023-03-01T07:04:04;97221.56;;;-0.81;97.75
39555;BME280;25231;48.746;9.234;2023-03-01T07:06:29;97216.34;;;-0.71;97.22
39555;BME280;25231;48.746;9.234;2023-03-01T07:08:55;97213.59;;;-0.88;97.70
39555;BME280;25231;48.746;9.234;2023-03-01T07:11:20;97215.16;;;-0.77;97.89
39555;BME280;25231;48.746;9.234;2023-03-01T07:13:45;97221.16;;;-1.04;98.21
39555;BME280;25231;48.746;9.234;2023-03-01T07:16:11;97219.09;;;-1.00;98.28
39555;BME280;25231;48.746;9.234;2023-03-01T07:18:36;97224.44;;;-0.84;97.84
39555;BME280;25231;48.746;9.234;2023-03-01T07:21:06;97216.41;;;-0.81;97.98
39555;BME280;25231;48.746;9.234;2023-03-01T07:23:33;97213.84;;;-0.81;96.89
39555;BME280;25231;48.746;9.234;2023-03-01T07:25:59;97209.88;;;-0.75;97.22
39555;BME280;25231;48.746;9.234;2023-03-01T07:28:26;97204.59;;;-0.74;96.85
39555;BME280;25231;48.746;9.234;2023-03-01T07:30:51;97197.25;;;-0.51;95.75
39555;BME280;25231;48.746;9.234;2023-03-01T07:33:17;97198.25;;;-0.44;94.73
39555;BME280;25231;48.746;9.234;2023-03-01T07:35:42;97197.25;;;-0.51;94.66
39555;BME280;25231;48.746;9.234;2023-03-01T07:38:08;97193.88;;;-0.34;94.65
39555;BME280;25231;48.746;9.234;2023-03-01T07:40:33;97195.69;;;-0.26;93.71
39555;BME280;25231;48.746;9.234;2023-03-01T07:42:59;97195.41;;;-0.23;92.70
39555;BME280;25231;48.746;9.234;2023-03-01T07:45:27;97194.06;;;-0.27;93.06
39555;BME280;25231;48.746;9.234;2023-03-01T07:47:52;97190.84;;;-0.29;93.14
39555;BME280;25231;48.746;9.234;2023-03-01T07:50:18;97183.94;;;-0.29;93.10
39555;BME280;25231;48.746;9.234;2023-03-01T07:52:48;97181.59;;;-0.40;94.01
39555;BME280;25231;48.746;9.234;2023-03-01T07:55:14;97179.25;;;0.18;93.20
39555;BME280;25231;48.746;9.234;2023-03-01T07:57:40;97179.41;;;-0.09;92.18
39555;BME280;25231;48.746;9.234;2023-03-01T08:00:07;97178.91;;;0.13;91.86
39555;BME280;25231;48.746;9.234;2023-03-01T08:02:32;97181.00;;;0.18;90.20
39555;BME280;25231;48.746;9.234;2023-03-01T08:04:58;97183.34;;;0.03;90.76
39555;BME280;25231;48.746;9.234;2023-03-01T08:07:23;97170.97;;;0.07;91.10
39555;BME280;25231;48.746;9.234;2023-03-01T08:09:49;97179.34;;;0.34;89.28
39555;BME280;25231;48.746;9.234;2023-03-01T08:12:14;97177.13;;;0.14;89.07
39555;BME280;25231;48.746;9.234;2023-03-01T08:14:41;97178.69;;;0.07;89.03
39555;BME280;25231;48.746;9.234;2023-03-01T08:17:06;97172.22;;;0.03;90.02
39555;BME280;25231;48.746;9.234;2023-03-01T08:19:32;97177.63;;;0.17;89.47
39555;BME280;25231;48.746;9.234;2023-03-01T08:22:01;97176.66;;;0.18;89.24
39555;BME280;25231;48.746;9.234;2023-03-01T08:24:27;97176.13;;;0.32;88.85
39555;BME280;25231;48.746;9.234;2023-03-01T08:26:52;97177.84;;;0.24;87.93
39555;BME280;25231;48.746;9.234;2023-03-01T08:29:18;97178.00;;;0.22;88.48
39555;BME280;25231;48.746;9.234;2023-03-01T08:31:43;97176.72;;;0.26;88.33
39555;BME280;25231;48.746;9.234;2023-03-01T08:34:12;97170.78;;;0.34;88.96
39555;BME280;25231;48.746;9.234;2023-03-01T08:36:43;97164.19;;;0.65;87.17
39555;BME280;25231;48.746;9.234;2023-03-01T08:39:12;97167.13;;;0.78;86.07
39555;BME280;25231;48.746;9.234;2023-03-01T08:41:38;97174.63;;;0.98;84.45
39555;BME280;25231;48.746;9.234;2023-03-01T08:44:04;97167.03;;;0.54;85.90
39555;BME280;25231;48.746;9.234;2023-03-01T08:46:33;97177.63;;;0.43;87.46
39555;BME280;25231;48.746;9.234;2023-03-01T08:48:59;97164.53;;;0.70;86.37
39555;BME280;25231;48.746;9.234;2023-03-01T08:51:25;97161.13;;;0.70;85.70
39555;BME280;25231;48.746;9.234;2023-03-01T08:53:51;97162.03;;;0.95;84.09
39555;BME280;25231;48.746;9.234;2023-03-01T08:56:18;97156.38;;;0.83;83.96
39555;BME280;25231;48.746;9.234;2023-03-01T08:58:47;97152.75;;;0.68;83.93
39555;BME280;25231;48.746;9.234;2023-03-01T09:01:15;97154.59;;;0.83;84.45
39555;BME280;25231;48.746;9.234;2023-03-01T09:03:42;97160.75;;;1.07;83.36
39555;BME280;25231;48.746;9.234;2023-03-01T09:06:08;97161.22;;;0.94;82.63
39555;BME280;25231;48.746;9.234;2023-03-01T09:08:38;97159.63;;;1.01;82.43
39555;BME280;25231;48.746;9.234;2023-03-01T09:11:05;97146.91;;;1.08;82.38
39555;BME280;25231;48.746;9.234;2023-03-01T09:13:31;97142.19;;;0.87;82.39
39555;BME280;25231;48.746;9.234;2023-03-01T09:15:58;97140.75;;;1.01;82.97
39555;BME280;25231;48.746;9.234;2023-03-01T09:18:23;97129.97;;;1.05;81.80
39555;BME280;25231;48.746;9.234;2023-03-01T09:20:48;97127.25;;;1.31;80.80
39555;BME280;25231;48.746;9.234;2023-03-01T09:23:14;97121.44;;;1.45;80.70
39555;BME280;25231;48.746;9.234;2023-03-01T09:25:39;97127.59;;;1.28;80.17
39555;BME280;25231;48.746;9.234;2023-03-01T09:28:05;97114.19;;;1.16;80.71
39555;BME280;25231;48.746;9.234;2023-03-01T09:30:30;97125.78;;;1.12;80.07
39555;BME280;25231;48.746;9.234;2023-03-01T09:32:58;97118.06;;;1.37;79.39
39555;BME280;25231;48.746;9.234;2023-03-01T09:35:23;97115.81;;;1.50;79.32
39555;BME280;25231;48.746;9.234;2023-03-01T09:37:49;97120.00;;;1.27;79.20
39555;BME280;25231;48.746;9.234;2023-03-01T09:40:24;97122.09;;;1.55;79.15
39555;BME280;25231;48.746;9.234;2023-03-01T09:43:13;97126.28;;;1.56;77.69
39555;BME280;25231;48.746;9.234;2023-03-01T09:45:41;97118.56;;;1.48;77.96
39555;BME280;25231;48.746;9.234;2023-03-01T09:48:15;97125.63;;;1.62;77.88
39555;BME280;25231;48.746;9.234;2023-03-01T09:50:43;97124.50;;;1.41;78.71
39555;BME280;25231;48.746;9.234;2023-03-01T09:53:32;97112.41;;;1.65;76.33
39555;BME280;25231;48.746;9.234;2023-03-01T10:06:52;97093.00;;;1.86;75.95
39555;BME280;25231;48.746;9.234;2023-03-01T10:09:22;97092.69;;;1.89;75.44
39555;BME280;25231;48.746;9.234;2023-03-01T10:11:54;97089.91;;;1.90;75.12
39555;BME280;25231;48.746;9.234;2023-03-01T10:14:38;97102.31;;;2.11;75.42
39555;BME280;25231;48.746;9.234;2023-03-01T10:17:16;97087.94;;;2.17;75.18
39555;BME280;25231;48.746;9.234;2023-03-01T10:19:46;97084.69;;;2.15;73.73
39555;BME280;25231;48.746;9.234;2023-03-01T10:24:40;97077.47;;;2.41;73.74
39555;BME280;25231;48.746;9.234;2023-03-01T10:27:11;97063.94;;;2.31;73.51
39555;BME280;25231;48.746;9.234;2023-03-01T10:29:48;97065.09;;;2.28;72.83
39555;BME280;25231;48.746;9.234;2023-03-01T10:32:16;97059.44;;;2.25;73.07
39555;BME280;25231;48.746;9.234;2023-03-01T10:34:42;97059.50;;;2.47;72.64
39555;BME280;25231;48.746;9.234;2023-03-01T10:37:13;97063.88;;;2.47;73.60
39555;BME280;25231;48.746;9.234;2023-03-01T10:40:01;97061.91;;;2.80;71.77
39555;BME280;25231;48.746;9.234;2023-03-01T10:42:33;97061.13;;;2.48;72.48
39555;BME280;25231;48.746;9.234;2023-03-01T10:45:34;97065.19;;;2.43;72.67
39555;BME280;25231;48.746;9.234;2023-03-01T10:50:46;97063.94;;;2.39;71.52
39555;BME280;25231;48.746;9.234;2023-03-01T10:53:40;97060.97;;;2.50;71.56
39555;BME280;25231;48.746;9.234;2023-03-01T10:58:33;97044.69;;;2.95;71.14
39555;BME280;25231;48.746;9.234;2023-03-01T11:01:40;97043.13;;;3.09;69.53
39555;BME280;25231;48.746;9.234;2023-03-01T11:06:30;97036.00;;;3.11;69.59
39555;BME280;25231;48.746;9.234;2023-03-01T11:08:55;97028.44;;;3.24;69.13
39555;BME280;25231;48.746;9.234;2023-03-01T11:11:23;97024.19;;;3.31;68.37
39555;BME280;25231;48.746;9.234;2023-03-01T11:14:16;97026.50;;;3.41;68.43
39555;BME280;25231;48.746;9.234;2023-03-01T11:16:45;97020.16;;;3.28;68.74
39555;BME280;25231;48.746;9.234;2023-03-01T11:21:39;97017.03;;;3.33;67.91
39555;BME280;25231;48.746;9.234;2023-03-01T11:24:10;97009.00;;;3.43;67.96
39555;BME280;25231;48.746;9.234;2023-03-01T11:26:40;97000.00;;;3.53;67.89
39555;BME280;25231;48.746;9.234;2023-03-01T11:29:15;97004.91;;;3.48;68.13
39555;BME280;25231;48.746;9.234;2023-03-01T11:31:42;97000.81;;;3.39;68.01
39555;BME280;25231;48.746;9.234;2023-03-01T11:34:13;96990.28;;;3.55;68.12
39555;BME280;25231;48.746;9.234;2023-03-01T11:36:51;96981.50;;;3.42;67.15
39555;BME280;25231;48.746;9.234;2023-03-01T11:39:27;96994.59;;;3.78;67.01
39555;BME280;25231;48.746;9.234;2023-03-01T11:42:06;96993.47;;;3.57;66.53
39555;BME280;25231;48.746;9.234;2023-03-01T11:44:37;96992.88;;;3.85;66.86
39555;BME280;25231;48.746;9.234;2023-03-01T11:47:15;96987.06;;;3.68;66.31
39555;BME280;25231;48.746;9.234;2023-03-01T11:55:11;96974.66;;;3.78;65.95
39555;BME280;25231;48.746;9.234;2023-03-01T12:03:59;96963.00;;;4.03;64.85
39555;BME280;25231;48.746;9.234;2023-03-01T12:11:44;96944.63;;;4.34;64.75
39555;BME280;25231;48.746;9.234;2023-03-01T12:20:02;96926.94;;;4.44;65.36
39555;BME280;25231;48.746;9.234;2023-03-01T12:22:35;96921.13;;;4.64;64.04
39555;BME280;25231;48.746;9.234;2023-03-01T12:25:39;96916.94;;;4.41;63.85
39555;BME280;25231;48.746;9.234;2023-03-01T12:30:54;96916.25;;;4.54;64.09
39555;BME280;25231;48.746;9.234;2023-03-01T12:33:45;96903.25;;;4.75;63.44
39555;BME280;25231;48.746;9.234;2023-03-01T12:36:30;96902.22;;;4.70;62.82
39555;BME280;25231;48.746;9.234;2023-03-01T12:39:15;96906.03;;;4.74;63.09
39555;BME280;25231;48.746;9.234;2023-03-01T12:41:56;96891.00;;;4.90;63.42
39555;BME280;25231;48.746;9.234;2023-03-01T12:50:23;96877.69;;;4.72;62.70
39555;BME280;25231;48.746;9.234;2023-03-01T12:52:52;96874.94;;;4.80;62.94
39555;BME280;25231;48.746;9.234;2023-03-01T12:55:36;96876.13;;;4.78;63.08
39555;BME280;25231;48.746;9.234;2023-03-01T13:11:44;96847.91;;;5.24;62.69
39555;BME280;25231;48.746;9.234;2023-03-01T13:16:49;96855.75;;;5.37;61.92
39555;BME280;25231;48.746;9.234;2023-03-01T13:19:17;96860.75;;;5.38;61.71
39555;BME280;25231;48.746;9.234;2023-03-01T13:21:44;96854.72;;;5.31;61.94
39555;BME280;25231;48.746;9.234;2023-03-01T13:24:42;96850.78;;;5.42;61.47
39555;BME280;25231;48.746;9.234;2023-03-01T13:32:31;96850.63;;;5.50;60.98
39555;BME280;25231;48.746;9.234;2023-03-01T13:35:41;96848.88;;;5.57;61.12
39555;BME280;25231;48.746;9.234;2023-03-01T13:37:46;96836.56;;;5.79;60.66
39555;BME280;25231;48.746;9.234;2023-03-01T13:42:54;96841.69;;;5.66;60.49
39555;BME280;25231;48.746;9.234;2023-03-01T13:48:16;96829.13;;;5.76;60.31
39555;BME280;25231;48.746;9.234;2023-03-01T13:51:10;96827.06;;;5.65;60.08
39555;BME280;25231;48.746;9.234;2023-03-01T13:53:40;96833.78;;;5.87;59.86
39555;BME280;25231;48.746;9.234;2023-03-01T13:56:10;96835.41;;;5.95;59.62
39555;BME280;25231;48.746;9.234;2023-03-01T14:01:36;96826.53;;;5.76;60.72
39555;BME280;25231;48.746;9.234;2023-03-01T14:04:03;96814.75;;;5.86;60.48
39555;BME280;25231;48.746;9.234;2023-03-01T14:06:31;96822.75;;;5.78;60.85
39555;BME280;25231;48.746;9.234;2023-03-01T14:09:08;96826.06;;;5.59;61.49
39555;BME280;25231;48.746;9.234;2023-03-01T14:19:25;96815.63;;;5.46;62.12
39555;BME280;25231;48.746;9.234;2023-03-01T14:24:47;96824.44;;;5.52;62.79
39555;BME280;25231;48.746;9.234;2023-03-01T14:27:14;96835.56;;;5.39;62.87
39555;BME280;25231;48.746;9.234;2023-03-01T14:29:40;96830.97;;;5.41;63.03
39555;BME280;25231;48.746;9.234;2023-03-01T14:32:11;96833.59;;;5.48;62.41
39555;BME280;25231;48.746;9.234;2023-03-01T14:34:43;96836.25;;;5.54;62.06
39555;BME280;25231;48.746;9.234;2023-03-01T14:37:33;96846.69;;;5.67;61.89
39555;BME280;25231;48.746;9.234;2023-03-01T14:40:02;96829.88;;;5.63;61.29
39555;BME280;25231;48.746;9.234;2023-03-01T14:42:34;96843.25;;;5.60;61.22
39555;BME280;25231;48.746;9.234;2023-03-01T14:45:01;96854.28;;;5.69;61.34
39555;BME280;25231;48.746;9.234;2023-03-01T14:47:32;96859.84;;;5.59;61.28
39555;BME280;25231;48.746;9.234;2023-03-01T14:52:33;96852.38;;;5.84;61.13
39555;BME280;25231;48.746;9.234;2023-03-01T14:54:59;96857.91;;;5.74;61.62
39555;BME280;25231;48.746;9.234;2023-03-01T14:57:26;96844.91;;;5.74;60.82
39555;BME280;25231;48.746;9.234;2023-03-01T14:59:58;96841.53;;;5.80;60.64